Markleeville, CA

12:06 AM PST on March 06, 2015 (GMT -0800)
MesoWest SPRATT CREEK CA US SNOTEL | Change Station
CLOSE
Current Station
Personal Weather Station
Location: Markleeville, CA
Elevation: 6200 ft
Nearby Weather Stations

Elev 6200 ft 38.67 °N, 119.82 °W | Updated 2 days ago

Clear
Clear
29 °F
Feels Like 29 °F
N
3
Wind Variable Wind from SE
Gusts mph

Today
High -- | Low -- °F
--% Chance of Precip.
Yesterday
High -- | Low -- °F
Precip. -- in
6:24 AM 5:57 PM
Full, 100% visible
Pressure 30.39 in
Visibility 10.0 miles
Clouds Clear
Dew Point 17 °F
Humidity 59%
Rainfall in
Snow Depth Not available.
UV 0 out of 12
Pollen 4.80 out of 12
Air Quality Not available.
Flu Activity Not available.
METAR KTVL 060753Z AUTO 00000KT 10SM CLR M02/M06 A3042 RMK AO2 SLP290 T10171061 401331083

More Conditions Fewer Conditions

Pressure 30.39 in
Visibility 10.0 miles
Clouds Clear
Dew Point 17 °F
Humidity 59%
Rainfall in
Snow Depth Not available.
UV 0 out of 12
Pollen 4.80 out of 12
Air Quality Not available.
Flu Activity Not available.
METAR KTVL 060753Z AUTO 00000KT 10SM CLR M02/M06 A3042 RMK AO2 SLP290 T10171061 401331083

More Conditions Fewer Conditions

10-Day Weather Forecast

Almanac

Astronomy

Mar. 06, 2015 Rise Set
Actual Time
Civil Twilight
Nautical Twilight
Astronomical Twilight
Moon
Length of Visible Light
Length of Day
Tomorrow will be .
, % of the Moon is Illuminated

Today's Extremes

State Highs State Lows

Community

WunderPhotos

Upload Photos

1,803,199 photos uploaded!

WunderBlogs® & News

Nearby

Air Quality

  Air Quality AQ Index Pollutant
Not available.

Snow Depth

Station Depth Elevation

Earthquake Activity

City Distance Mag. Time & Date
Minimum magnitude displayed is 2.5.

Coastal Water Temperatures

Place Temperature

Nearby Weather Stations